sensor_id;sensor_type;location;lat;lon;timestamp;P1;durP1;ratioP1;P2;durP2;ratioP2
28174;SDS011;59417;44.788;10.334;2023-02-01T00:00:43;20.38;;;12.80;;
28174;SDS011;59417;44.788;10.334;2023-02-01T00:03:09;30.05;;;14.23;;
28174;SDS011;59417;44.788;10.334;2023-02-01T00:05:34;24.58;;;13.02;;
28174;SDS011;59417;44.788;10.334;2023-02-01T00:08:00;23.42;;;13.20;;
28174;SDS011;59417;44.788;10.334;2023-02-01T00:10:25;24.55;;;13.38;;
28174;SDS011;59417;44.788;10.334;2023-02-01T00:12:53;22.00;;;12.40;;
28174;SDS011;59417;44.788;10.334;2023-02-01T00:15:18;22.63;;;12.48;;
28174;SDS011;59417;44.788;10.334;2023-02-01T00:17:44;20.95;;;12.05;;
28174;SDS011;59417;44.788;10.334;2023-02-01T00:20:12;22.08;;;12.43;;
28174;SDS011;59417;44.788;10.334;2023-02-01T00:22:40;21.83;;;12.00;;
28174;SDS011;59417;44.788;10.334;2023-02-01T00:25:09;19.88;;;11.80;;
28174;SDS011;59417;44.788;10.334;2023-02-01T00:27:34;17.27;;;10.13;;
28174;SDS011;59417;44.788;10.334;2023-02-01T00:30:00;18.70;;;10.20;;
28174;SDS011;59417;44.788;10.334;2023-02-01T00:32:25;21.83;;;11.15;;
28174;SDS011;59417;44.788;10.334;2023-02-01T00:34:51;22.20;;;11.48;;
28174;SDS011;59417;44.788;10.334;2023-02-01T00:37:20;14.55;;;9.82;;
28174;SDS011;59417;44.788;10.334;2023-02-01T00:39:46;18.90;;;10.93;;
28174;SDS011;59417;44.788;10.334;2023-02-01T00:42:12;20.83;;;11.52;;
28174;SDS011;59417;44.788;10.334;2023-02-01T00:44:37;18.10;;;10.27;;
28174;SDS011;59417;44.788;10.334;2023-02-01T00:47:03;19.60;;;12.95;;
28174;SDS011;59417;44.788;10.334;2023-02-01T00:49:29;19.65;;;10.95;;
28174;SDS011;59417;44.788;10.334;2023-02-01T00:51:54;16.08;;;9.40;;
28174;SDS011;59417;44.788;10.334;2023-02-01T00:54:20;18.13;;;9.50;;
28174;SDS011;59417;44.788;10.334;2023-02-01T00:56:46;19.92;;;10.15;;
28174;SDS011;59417;44.788;10.334;2023-02-01T00:59:11;18.45;;;9.57;;
28174;SDS011;59417;44.788;10.334;2023-02-01T01:01:38;13.55;;;9.77;;
28174;SDS011;59417;44.788;10.334;2023-02-01T01:04:03;16.02;;;9.82;;
28174;SDS011;59417;44.788;10.334;2023-02-01T01:06:30;14.57;;;9.18;;
28174;SDS011;59417;44.788;10.334;2023-02-01T01:09:00;18.30;;;9.82;;
28174;SDS011;59417;44.788;10.334;2023-02-01T01:11:31;17.27;;;9.43;;
28174;SDS011;59417;44.788;10.334;2023-02-01T01:13:59;14.63;;;9.48;;
28174;SDS011;59417;44.788;10.334;2023-02-01T01:16:25;15.52;;;9.25;;
28174;SDS011;59417;44.788;10.334;2023-02-01T01:18:53;16.60;;;9.98;;
28174;SDS011;59417;44.788;10.334;2023-02-01T01:21:20;12.88;;;8.27;;
28174;SDS011;59417;44.788;10.334;2023-02-01T01:23:46;13.50;;;7.85;;
28174;SDS011;59417;44.788;10.334;2023-02-01T01:26:16;16.27;;;8.40;;
28174;SDS011;59417;44.788;10.334;2023-02-01T01:28:44;14.25;;;8.57;;
28174;SDS011;59417;44.788;10.334;2023-02-01T01:31:11;14.07;;;8.55;;
28174;SDS011;59417;44.788;10.334;2023-02-01T01:33:38;17.10;;;9.00;;
28174;SDS011;59417;44.788;10.334;2023-02-01T01:36:05;15.00;;;8.55;;
28174;SDS011;59417;44.788;10.334;2023-02-01T01:38:31;15.48;;;7.82;;
28174;SDS011;59417;44.788;10.334;2023-02-01T01:40:58;14.65;;;8.27;;
28174;SDS011;59417;44.788;10.334;2023-02-01T01:43:23;12.55;;;7.90;;
28174;SDS011;59417;44.788;10.334;2023-02-01T01:45:51;14.57;;;8.23;;
28174;SDS011;59417;44.788;10.334;2023-02-01T01:50:50;16.20;;;8.90;;
28174;SDS011;59417;44.788;10.334;2023-02-01T01:53:26;17.67;;;7.07;;
28174;SDS011;59417;44.788;10.334;2023-02-01T01:55:55;13.77;;;7.88;;
28174;SDS011;59417;44.788;10.334;2023-02-01T01:58:22;13.73;;;7.60;;
28174;SDS011;59417;44.788;10.334;2023-02-01T02:00:51;13.07;;;7.68;;
28174;SDS011;59417;44.788;10.334;2023-02-01T02:03:18;12.60;;;8.30;;
28174;SDS011;59417;44.788;10.334;2023-02-01T02:05:44;17.95;;;7.93;;
28174;SDS011;59417;44.788;10.334;2023-02-01T02:08:14;15.63;;;7.55;;
28174;SDS011;59417;44.788;10.334;2023-02-01T02:10:40;15.45;;;7.43;;
28174;SDS011;59417;44.788;10.334;2023-02-01T02:13:27;12.65;;;7.72;;
28174;SDS011;59417;44.788;10.334;2023-02-01T02:18:31;11.18;;;6.53;;
28174;SDS011;59417;44.788;10.334;2023-02-01T02:35:25;9.95;;;4.90;;
28174;SDS011;59417;44.788;10.334;2023-02-01T02:38:05;9.40;;;6.18;;
28174;SDS011;59417;44.788;10.334;2023-02-01T02:40:37;7.47;;;5.00;;
28174;SDS011;59417;44.788;10.334;2023-02-01T02:43:32;8.20;;;5.45;;
28174;SDS011;59417;44.788;10.334;2023-02-01T02:46:44;6.72;;;4.43;;
28174;SDS011;59417;44.788;10.334;2023-02-01T02:49:36;8.45;;;5.03;;
28174;SDS011;59417;44.788;10.334;2023-02-01T02:52:11;6.70;;;4.47;;
28174;SDS011;59417;44.788;10.334;2023-02-01T02:57:29;9.63;;;5.28;;
28174;SDS011;59417;44.788;10.334;2023-02-01T03:00:27;7.93;;;4.72;;
28174;SDS011;59417;44.788;10.334;2023-02-01T03:03:15;8.90;;;4.80;;
28174;SDS011;59417;44.788;10.334;2023-02-01T03:05:59;6.82;;;4.90;;
28174;SDS011;59417;44.788;10.334;2023-02-01T03:08:26;9.35;;;5.35;;
28174;SDS011;59417;44.788;10.334;2023-02-01T03:18:37;10.70;;;6.32;;
28174;SDS011;59417;44.788;10.334;2023-02-01T03:21:06;10.38;;;5.50;;
28174;SDS011;59417;44.788;10.334;2023-02-01T03:23:37;10.48;;;5.85;;
28174;SDS011;59417;44.788;10.334;2023-02-01T03:26:07;13.20;;;6.18;;
28174;SDS011;59417;44.788;10.334;2023-02-01T03:28:36;9.73;;;6.30;;
28174;SDS011;59417;44.788;10.334;2023-02-01T03:31:04;10.52;;;6.78;;
28174;SDS011;59417;44.788;10.334;2023-02-01T03:33:30;11.18;;;6.88;;
28174;SDS011;59417;44.788;10.334;2023-02-01T03:36:03;10.25;;;6.28;;
28174;SDS011;59417;44.788;10.334;2023-02-01T03:38:48;14.13;;;6.22;;
28174;SDS011;59417;44.788;10.334;2023-02-01T03:49:34;9.57;;;6.28;;
28174;SDS011;59417;44.788;10.334;2023-02-01T03:52:04;10.43;;;6.43;;
28174;SDS011;59417;44.788;10.334;2023-02-01T03:54:33;12.23;;;6.55;;
28174;SDS011;59417;44.788;10.334;2023-02-01T03:57:01;9.07;;;6.45;;
28174;SDS011;59417;44.788;10.334;2023-02-01T03:59:31;7.80;;;5.75;;
28174;SDS011;59417;44.788;10.334;2023-02-01T04:01:57;10.00;;;6.57;;
28174;SDS011;59417;44.788;10.334;2023-02-01T04:04:23;11.05;;;6.03;;
28174;SDS011;59417;44.788;10.334;2023-02-01T04:06:52;12.17;;;6.47;;
28174;SDS011;59417;44.788;10.334;2023-02-01T04:09:18;12.77;;;7.53;;
28174;SDS011;59417;44.788;10.334;2023-02-01T04:11:44;16.50;;;6.80;;
28174;SDS011;59417;44.788;10.334;2023-02-01T04:14:12;8.52;;;5.82;;
28174;SDS011;59417;44.788;10.334;2023-02-01T04:16:37;10.15;;;6.40;;
28174;SDS011;59417;44.788;10.334;2023-02-01T04:19:03;12.45;;;6.80;;
28174;SDS011;59417;44.788;10.334;2023-02-01T04:21:29;13.35;;;7.10;;
28174;SDS011;59417;44.788;10.334;2023-02-01T04:23:55;10.65;;;6.60;;
28174;SDS011;59417;44.788;10.334;2023-02-01T04:26:20;10.10;;;6.47;;
28174;SDS011;59417;44.788;10.334;2023-02-01T04:28:46;11.60;;;6.47;;
28174;SDS011;59417;44.788;10.334;2023-02-01T04:31:17;11.85;;;5.70;;
28174;SDS011;59417;44.788;10.334;2023-02-01T04:33:53;10.75;;;6.43;;
28174;SDS011;59417;44.788;10.334;2023-02-01T04:38:50;11.43;;;6.82;;
28174;SDS011;59417;44.788;10.334;2023-02-01T04:41:18;13.65;;;7.28;;
28174;SDS011;59417;44.788;10.334;2023-02-01T04:43:45;11.52;;;6.32;;
28174;SDS011;59417;44.788;10.334;2023-02-01T04:46:15;10.93;;;7.00;;
28174;SDS011;59417;44.788;10.334;2023-02-01T04:48:41;10.27;;;6.55;;
28174;SDS011;59417;44.788;10.334;2023-02-01T04:51:07;11.40;;;6.57;;
28174;SDS011;59417;44.788;10.334;2023-02-01T04:53:36;14.63;;;7.63;;
28174;SDS011;59417;44.788;10.334;2023-02-01T04:56:04;12.80;;;7.18;;
28174;SDS011;59417;44.788;10.334;2023-02-01T04:58:33;14.70;;;7.28;;
28174;SDS011;59417;44.788;10.334;2023-02-01T05:00:59;14.38;;;7.20;;
28174;SDS011;59417;44.788;10.334;2023-02-01T05:03:29;14.82;;;6.70;;
28174;SDS011;59417;44.788;10.334;2023-02-01T05:05:55;10.68;;;7.00;;
28174;SDS011;59417;44.788;10.334;2023-02-01T05:08:21;13.80;;;7.07;;
28174;SDS011;59417;44.788;10.334;2023-02-01T05:10:52;15.00;;;7.57;;
28174;SDS011;59417;44.788;10.334;2023-02-01T05:13:20;12.57;;;7.35;;
28174;SDS011;59417;44.788;10.334;2023-02-01T05:16:05;15.55;;;8.63;;
28174;SDS011;59417;44.788;10.334;2023-02-01T05:18:31;15.57;;;8.07;;
28174;SDS011;59417;44.788;10.334;2023-02-01T05:20:57;11.52;;;7.20;;
28174;SDS011;59417;44.788;10.334;2023-02-01T05:23:22;13.20;;;7.25;;
28174;SDS011;59417;44.788;10.334;2023-02-01T05:25:48;12.25;;;7.65;;
28174;SDS011;59417;44.788;10.334;2023-02-01T05:28:13;11.35;;;7.68;;
28174;SDS011;59417;44.788;10.334;2023-02-01T05:30:39;14.93;;;8.40;;
28174;SDS011;59417;44.788;10.334;2023-02-01T05:33:04;14.20;;;8.52;;
28174;SDS011;59417;44.788;10.334;2023-02-01T05:35:30;14.80;;;8.35;;
28174;SDS011;59417;44.788;10.334;2023-02-01T05:37:55;17.45;;;8.43;;
28174;SDS011;59417;44.788;10.334;2023-02-01T05:40:21;11.30;;;7.32;;
28174;SDS011;59417;44.788;10.334;2023-02-01T05:42:47;12.35;;;7.93;;
28174;SDS011;59417;44.788;10.334;2023-02-01T05:45:13;15.75;;;8.27;;
28174;SDS011;59417;44.788;10.334;2023-02-01T05:47:38;11.93;;;8.10;;
28174;SDS011;59417;44.788;10.334;2023-02-01T05:50:04;13.93;;;7.70;;
28174;SDS011;59417;44.788;10.334;2023-02-01T05:52:30;13.98;;;7.90;;
28174;SDS011;59417;44.788;10.334;2023-02-01T05:54:56;12.32;;;7.93;;
28174;SDS011;59417;44.788;10.334;2023-02-01T05:57:22;15.05;;;8.18;;
28174;SDS011;59417;44.788;10.334;2023-02-01T05:59:50;11.93;;;7.65;;
28174;SDS011;59417;44.788;10.334;2023-02-01T06:02:16;14.20;;;8.00;;
28174;SDS011;59417;44.788;10.334;2023-02-01T06:04:42;20.17;;;8.98;;
28174;SDS011;59417;44.788;10.334;2023-02-01T06:07:31;14.35;;;8.05;;
28174;SDS011;59417;44.788;10.334;2023-02-01T06:09:58;13.10;;;7.70;;
28174;SDS011;59417;44.788;10.334;2023-02-01T06:12:24;15.98;;;8.15;;
28174;SDS011;59417;44.788;10.334;2023-02-01T06:14:49;13.80;;;7.93;;
28174;SDS011;59417;44.788;10.334;2023-02-01T06:17:15;13.63;;;8.00;;
28174;SDS011;59417;44.788;10.334;2023-02-01T06:19:45;18.30;;;8.25;;
28174;SDS011;59417;44.788;10.334;2023-02-01T06:22:14;16.23;;;9.02;;
28174;SDS011;59417;44.788;10.334;2023-02-01T06:24:39;14.90;;;8.25;;
28174;SDS011;59417;44.788;10.334;2023-02-01T06:27:11;10.27;;;7.15;;
28174;SDS011;59417;44.788;10.334;2023-02-01T06:29:42;17.42;;;8.50;;
28174;SDS011;59417;44.788;10.334;2023-02-01T06:32:07;14.98;;;7.70;;
28174;SDS011;59417;44.788;10.334;2023-02-01T06:34:57;14.00;;;7.97;;
28174;SDS011;59417;44.788;10.334;2023-02-01T06:44:48;22.88;;;9.77;;
28174;SDS011;59417;44.788;10.334;2023-02-01T06:47:19;17.98;;;8.43;;
28174;SDS011;59417;44.788;10.334;2023-02-01T06:50:10;17.40;;;8.13;;
28174;SDS011;59417;44.788;10.334;2023-02-01T06:56:26;15.13;;;7.45;;
28174;SDS011;59417;44.788;10.334;2023-02-01T06:58:53;14.40;;;8.20;;
28174;SDS011;59417;44.788;10.334;2023-02-01T07:01:22;15.82;;;7.63;;
28174;SDS011;59417;44.788;10.334;2023-02-01T07:03:55;15.95;;;7.53;;
28174;SDS011;59417;44.788;10.334;2023-02-01T07:06:20;13.80;;;8.15;;
28174;SDS011;59417;44.788;10.334;2023-02-01T07:08:46;13.43;;;8.63;;
28174;SDS011;59417;44.788;10.334;2023-02-01T07:11:21;16.02;;;8.10;;
28174;SDS011;59417;44.788;10.334;2023-02-01T07:13:47;18.30;;;8.02;;
28174;SDS011;59417;44.788;10.334;2023-02-01T07:16:17;17.83;;;8.23;;
28174;SDS011;59417;44.788;10.334;2023-02-01T07:18:47;15.43;;;7.55;;
28174;SDS011;59417;44.788;10.334;2023-02-01T07:21:16;14.55;;;8.68;;
28174;SDS011;59417;44.788;10.334;2023-02-01T07:24:00;17.52;;;7.97;;
28174;SDS011;59417;44.788;10.334;2023-02-01T07:26:26;19.95;;;7.90;;
28174;SDS011;59417;44.788;10.334;2023-02-01T07:28:59;13.13;;;7.45;;
28174;SDS011;59417;44.788;10.334;2023-02-01T07:31:25;15.95;;;7.63;;
28174;SDS011;59417;44.788;10.334;2023-02-01T07:33:54;15.38;;;8.48;;
28174;SDS011;59417;44.788;10.334;2023-02-01T07:36:24;16.15;;;8.90;;
28174;SDS011;59417;44.788;10.334;2023-02-01T07:39:07;22.38;;;10.00;;
28174;SDS011;59417;44.788;10.334;2023-02-01T07:41:33;17.52;;;9.02;;
28174;SDS011;59417;44.788;10.334;2023-02-01T07:44:01;18.00;;;9.55;;
28174;SDS011;59417;44.788;10.334;2023-02-01T07:46:30;20.27;;;9.20;;
28174;SDS011;59417;44.788;10.334;2023-02-01T07:52:46;24.30;;;9.52;;
28174;SDS011;59417;44.788;10.334;2023-02-01T07:58:59;29.05;;;9.52;;
28174;SDS011;59417;44.788;10.334;2023-02-01T08:01:26;17.73;;;8.85;;
28174;SDS011;59417;44.788;10.334;2023-02-01T08:03:54;15.02;;;9.15;;
28174;SDS011;59417;44.788;10.334;2023-02-01T08:06:21;20.40;;;9.35;;
28174;SDS011;59417;44.788;10.334;2023-02-01T08:08:48;18.85;;;8.63;;
28174;SDS011;59417;44.788;10.334;2023-02-01T08:11:15;22.27;;;9.40;;
28174;SDS011;59417;44.788;10.334;2023-02-01T08:13:41;30.60;;;9.35;;
28174;SDS011;59417;44.788;10.334;2023-02-01T08:16:11;17.80;;;9.70;;
28174;SDS011;59417;44.788;10.334;2023-02-01T08:18:37;16.08;;;9.38;;
28174;SDS011;59417;44.788;10.334;2023-02-01T08:21:08;20.00;;;9.45;;
28174;SDS011;59417;44.788;10.334;2023-02-01T08:23:36;21.55;;;10.10;;
28174;SDS011;59417;44.788;10.334;2023-02-01T08:28:33;21.67;;;10.25;;
28174;SDS011;59417;44.788;10.334;2023-02-01T08:30:58;18.83;;;10.65;;
28174;SDS011;59417;44.788;10.334;2023-02-01T08:33:24;20.65;;;11.30;;
28174;SDS011;59417;44.788;10.334;2023-02-01T08:35:50;20.33;;;10.50;;
28174;SDS011;59417;44.788;10.334;2023-02-01T08:38:15;28.92;;;11.40;;
28174;SDS011;59417;44.788;10.334;2023-02-01T08:40:41;21.15;;;11.50;;
28174;SDS011;59417;44.788;10.334;2023-02-01T08:43:07;18.40;;;11.18;;
28174;SDS011;59417;44.788;10.334;2023-02-01T08:45:35;23.70;;;12.27;;
28174;SDS011;59417;44.788;10.334;2023-02-01T08:48:04;20.95;;;12.38;;
28174;SDS011;59417;44.788;10.334;2023-02-01T08:50:29;27.42;;;13.73;;
28174;SDS011;59417;44.788;10.334;2023-02-01T08:52:55;28.98;;;12.93;;
28174;SDS011;59417;44.788;10.334;2023-02-01T08:55:21;37.42;;;15.23;;
28174;SDS011;59417;44.788;10.334;2023-02-01T08:57:46;43.28;;;24.60;;
28174;SDS011;59417;44.788;10.334;2023-02-01T09:02:42;40.38;;;24.60;;
28174;SDS011;59417;44.788;10.334;2023-02-01T09:05:08;47.17;;;26.27;;
28174;SDS011;59417;44.788;10.334;2023-02-01T09:07:35;39.78;;;23.48;;
28174;SDS011;59417;44.788;10.334;2023-02-01T09:10:02;43.42;;;26.05;;
28174;SDS011;59417;44.788;10.334;2023-02-01T09:12:32;47.05;;;26.67;;
28174;SDS011;59417;44.788;10.334;2023-02-01T09:15:01;48.30;;;29.00;;
28174;SDS011;59417;44.788;10.334;2023-02-01T09:17:26;51.30;;;28.30;;
28174;SDS011;59417;44.788;10.334;2023-02-01T09:19:52;48.65;;;30.45;;
28174;SDS011;59417;44.788;10.334;2023-02-01T09:22:18;51.88;;;29.02;;
28174;SDS011;59417;44.788;10.334;2023-02-01T09:24:44;49.60;;;30.75;;
28174;SDS011;59417;44.788;10.334;2023-02-01T09:27:09;48.72;;;27.73;;
28174;SDS011;59417;44.788;10.334;2023-02-01T09:29:35;45.85;;;29.70;;
28174;SDS011;59417;44.788;10.334;2023-02-01T09:32:01;49.88;;;28.67;;
28174;SDS011;59417;44.788;10.334;2023-02-01T09:34:26;48.70;;;29.95;;
28174;SDS011;59417;44.788;10.334;2023-02-01T09:36:52;51.17;;;29.92;;
28174;SDS011;59417;44.788;10.334;2023-02-01T09:39:18;52.25;;;30.80;;
28174;SDS011;59417;44.788;10.334;2023-02-01T09:47:09;47.60;;;29.63;;
28174;SDS011;59417;44.788;10.334;2023-02-01T09:49:43;51.75;;;31.25;;
28174;SDS011;59417;44.788;10.334;2023-02-01T09:52:24;50.55;;;29.30;;
28174;SDS011;59417;44.788;10.334;2023-02-01T09:55:04;52.85;;;30.45;;
28174;SDS011;59417;44.788;10.334;2023-02-01T09:57:43;50.60;;;30.45;;
28174;SDS011;59417;44.788;10.334;2023-02-01T10:00:20;49.33;;;30.35;;
28174;SDS011;59417;44.788;10.334;2023-02-01T10:02:50;50.08;;;29.08;;
28174;SDS011;59417;44.788;10.334;2023-02-01T10:05:18;49.75;;;31.35;;
28174;SDS011;59417;44.788;10.334;2023-02-01T10:08:19;51.05;;;31.42;;
28174;SDS011;59417;44.788;10.334;2023-02-01T10:11:03;46.28;;;28.05;;
28174;SDS011;59417;44.788;10.334;2023-02-01T10:13:48;49.88;;;31.42;;
28174;SDS011;59417;44.788;10.334;2023-02-01T10:16:40;47.90;;;29.65;;
28174;SDS011;59417;44.788;10.334;2023-02-01T10:22:25;51.20;;;31.08;;
28174;SDS011;59417;44.788;10.334;2023-02-01T10:27:42;53.22;;;32.50;;
28174;SDS011;59417;44.788;10.334;2023-02-01T10:30:24;52.17;;;31.88;;
28174;SDS011;59417;44.788;10.334;2023-02-01T10:32:56;53.10;;;32.28;;
28174;SDS011;59417;44.788;10.334;2023-02-01T10:35:33;45.95;;;29.75;;
28174;SDS011;59417;44.788;10.334;2023-02-01T10:38:05;50.67;;;30.70;;
28174;SDS011;59417;44.788;10.334;2023-02-01T10:40:42;56.08;;;31.23;;
28174;SDS011;59417;44.788;10.334;2023-02-01T10:43:08;45.03;;;29.25;;
28174;SDS011;59417;44.788;10.334;2023-02-01T10:45:35;49.55;;;29.85;;
28174;SDS011;59417;44.788;10.334;2023-02-01T10:48:04;49.72;;;29.40;;
28174;SDS011;59417;44.788;10.334;2023-02-01T10:55:49;41.75;;;25.75;;
28174;SDS011;59417;44.788;10.334;2023-02-01T10:58:20;43.30;;;27.77;;
28174;SDS011;59417;44.788;10.334;2023-02-01T11:00:47;45.58;;;27.95;;
28174;SDS011;59417;44.788;10.334;2023-02-01T11:03:34;45.70;;;26.05;;
28174;SDS011;59417;44.788;10.334;2023-02-01T11:06:00;54.17;;;27.17;;
28174;SDS011;59417;44.788;10.334;2023-02-01T11:08:33;39.88;;;25.98;;
28174;SDS011;59417;44.788;10.334;2023-02-01T11:11:09;40.05;;;24.98;;
28174;SDS011;59417;44.788;10.334;2023-02-01T11:13:37;36.97;;;24.15;;
28174;SDS011;59417;44.788;10.334;2023-02-01T11:16:04;40.28;;;26.65;;
28174;SDS011;59417;44.788;10.334;2023-02-01T11:18:36;38.90;;;25.38;;
28174;SDS011;59417;44.788;10.334;2023-02-01T11:21:04;42.08;;;25.73;;
28174;SDS011;59417;44.788;10.334;2023-02-01T11:23:32;41.63;;;25.05;;
28174;SDS011;59417;44.788;10.334;2023-02-01T11:25:59;41.67;;;23.98;;
28174;SDS011;59417;44.788;10.334;2023-02-01T11:28:29;41.60;;;24.85;;
28174;SDS011;59417;44.788;10.334;2023-02-01T11:30:59;42.55;;;26.00;;
28174;SDS011;59417;44.788;10.334;2023-02-01T11:33:33;42.58;;;24.05;;
28174;SDS011;59417;44.788;10.334;2023-02-01T11:36:14;47.67;;;26.23;;
28174;SDS011;59417;44.788;10.334;2023-02-01T11:39:07;37.35;;;22.48;;
28174;SDS011;59417;44.788;10.334;2023-02-01T11:41:41;39.38;;;22.10;;
28174;SDS011;59417;44.788;10.334;2023-02-01T11:49:45;35.33;;;19.92;;
28174;SDS011;59417;44.788;10.334;2023-02-01T11:52:16;39.72;;;19.95;;
28174;SDS011;59417;44.788;10.334;2023-02-01T11:57:17;28.25;;;20.48;;
28174;SDS011;59417;44.788;10.334;2023-02-01T12:02:27;38.55;;;21.10;;
28174;SDS011;59417;44.788;10.334;2023-02-01T12:05:22;42.00;;;22.27;;
28174;SDS011;59417;44.788;10.334;2023-02-01T12:26:41;32.92;;;19.98;;
28174;SDS011;59417;44.788;10.334;2023-02-01T12:38:36;33.75;;;19.83;;
28174;SDS011;59417;44.788;10.334;2023-02-01T12:44:47;32.28;;;18.95;;
28174;SDS011;59417;44.788;10.334;2023-02-01T12:47:29;31.42;;;17.85;;
28174;SDS011;59417;44.788;10.334;2023-02-01T12:52:38;31.73;;;19.58;;
28174;SDS011;59417;44.788;10.334;2023-02-01T12:55:22;29.65;;;19.55;;
28174;SDS011;59417;44.788;10.334;2023-02-01T12:58:01;30.15;;;19.23;;
28174;SDS011;59417;44.788;10.334;2023-02-01T13:03:53;38.33;;;18.75;;
28174;SDS011;59417;44.788;10.334;2023-02-01T13:08:53;32.53;;;18.15;;
28174;SDS011;59417;44.788;10.334;2023-02-01T13:11:28;33.13;;;18.90;;
28174;SDS011;59417;44.788;10.334;2023-02-01T13:13:59;31.05;;;19.75;;
28174;SDS011;59417;44.788;10.334;2023-02-01T13:16:37;26.77;;;18.60;;
28174;SDS011;59417;44.788;10.334;2023-02-01T13:27:25;33.75;;;20.60;;
28174;SDS011;59417;44.788;10.334;2023-02-01T13:32:30;29.23;;;19.33;;
28174;SDS011;59417;44.788;10.334;2023-02-01T13:38:06;33.10;;;19.15;;
28174;SDS011;59417;44.788;10.334;2023-02-01T13:41:26;27.55;;;17.35;;
28174;SDS011;59417;44.788;10.334;2023-02-01T13:43:58;33.45;;;18.60;;
28174;SDS011;59417;44.788;10.334;2023-02-01T13:46:38;36.53;;;19.02;;
28174;SDS011;59417;44.788;10.334;2023-02-01T13:52:31;32.25;;;19.35;;
28174;SDS011;59417;44.788;10.334;2023-02-01T13:55:15;30.48;;;20.85;;
28174;SDS011;59417;44.788;10.334;2023-02-01T13:57:44;31.85;;;19.67;;
28174;SDS011;59417;44.788;10.334;2023-02-01T14:13:30;33.95;;;19.05;;
28174;SDS011;59417;44.788;10.334;2023-02-01T14:21:28;32.22;;;19.23;;
28174;SDS011;59417;44.788;10.334;2023-02-01T14:24:02;33.03;;;20.45;;
28174;SDS011;59417;44.788;10.334;2023-02-01T14:26:42;31.50;;;19.95;;
28174;SDS011;59417;44.788;10.334;2023-02-01T14:44:49;30.20;;;20.45;;
28174;SDS011;59417;44.788;10.334;2023-02-01T14:58:13;41.03;;;20.52;;
28174;SDS011;59417;44.788;10.334;2023-02-01T15:01:22;34.97;;;19.30;;
28174;SDS011;59417;44.788;10.334;2023-02-01T15:06:47;42.58;;;21.33;;
28174;SDS011;59417;44.788;10.334;2023-02-01T15:09:20;36.90;;;21.30;;
28174;SDS011;59417;44.788;10.334;2023-02-01T15:12:04;33.30;;;22.45;;
28174;SDS011;59417;44.788;10.334;2023-02-01T15:14:37;33.30;;;22.00;;
28174;SDS011;59417;44.788;10.334;2023-02-01T15:17:03;38.05;;;21.73;;
28174;SDS011;59417;44.788;10.334;2023-02-01T15:19:57;35.90;;;22.63;;
28174;SDS011;59417;44.788;10.334;2023-02-01T15:22:25;37.13;;;21.33;;
28174;SDS011;59417;44.788;10.334;2023-02-01T15:24:55;41.22;;;21.25;;
28174;SDS011;59417;44.788;10.334;2023-02-01T15:27:23;38.72;;;22.33;;
28174;SDS011;59417;44.788;10.334;2023-02-01T15:29:49;38.50;;;22.38;;
28174;SDS011;59417;44.788;10.334;2023-02-01T15:32:31;44.22;;;21.95;;
28174;SDS011;59417;44.788;10.334;2023-02-01T15:35:30;41.47;;;24.77;;
28174;SDS011;59417;44.788;10.334;2023-02-01T15:43:23;37.65;;;22.27;;
28174;SDS011;59417;44.788;10.334;2023-02-01T15:45:49;39.88;;;22.85;;
28174;SDS011;59417;44.788;10.334;2023-02-01T15:48:22;37.30;;;21.88;;
28174;SDS011;59417;44.788;10.334;2023-02-01T15:50:49;39.45;;;21.70;;
28174;SDS011;59417;44.788;10.334;2023-02-01T15:53:21;36.53;;;20.52;;
28174;SDS011;59417;44.788;10.334;2023-02-01T15:55:53;37.67;;;21.10;;
28174;SDS011;59417;44.788;10.334;2023-02-01T15:58:22;41.10;;;22.33;;
28174;SDS011;59417;44.788;10.334;2023-02-01T16:00:58;36.33;;;23.35;;
28174;SDS011;59417;44.788;10.334;2023-02-01T16:03:33;37.42;;;22.35;;
28174;SDS011;59417;44.788;10.334;2023-02-01T16:06:08;40.72;;;22.30;;
28174;SDS011;59417;44.788;10.334;2023-02-01T16:08:35;36.83;;;21.70;;
28174;SDS011;59417;44.788;10.334;2023-02-01T16:11:20;43.75;;;22.65;;
28174;SDS011;59417;44.788;10.334;2023-02-01T16:13:50;50.55;;;22.95;;
28174;SDS011;59417;44.788;10.334;2023-02-01T16:16:18;36.38;;;22.27;;
28174;SDS011;59417;44.788;10.334;2023-02-01T16:18:44;44.75;;;22.70;;
28174;SDS011;59417;44.788;10.334;2023-02-01T16:21:10;37.88;;;22.73;;
28174;SDS011;59417;44.788;10.334;2023-02-01T16:23:38;47.00;;;23.23;;
28174;SDS011;59417;44.788;10.334;2023-02-01T16:26:07;42.15;;;23.35;;
28174;SDS011;59417;44.788;10.334;2023-02-01T16:28:33;37.95;;;23.98;;
28174;SDS011;59417;44.788;10.334;2023-02-01T16:31:01;40.60;;;23.50;;
28174;SDS011;59417;44.788;10.334;2023-02-01T16:33:28;39.53;;;22.77;;
28174;SDS011;59417;44.788;10.334;2023-02-01T16:35:55;39.92;;;23.85;;
28174;SDS011;59417;44.788;10.334;2023-02-01T16:38:32;41.70;;;24.52;;
28174;SDS011;59417;44.788;10.334;2023-02-01T16:41:00;39.30;;;24.65;;
28174;SDS011;59417;44.788;10.334;2023-02-01T16:43:30;43.50;;;24.40;;
28174;SDS011;59417;44.788;10.334;2023-02-01T16:45:58;46.42;;;24.45;;
28174;SDS011;59417;44.788;10.334;2023-02-01T16:48:29;40.72;;;23.75;;
28174;SDS011;59417;44.788;10.334;2023-02-01T16:50:57;42.03;;;24.60;;
28174;SDS011;59417;44.788;10.334;2023-02-01T16:53:29;41.15;;;24.63;;
28174;SDS011;59417;44.788;10.334;2023-02-01T16:55:58;49.55;;;26.42;;
28174;SDS011;59417;44.788;10.334;2023-02-01T16:58:24;44.17;;;24.48;;
28174;SDS011;59417;44.788;10.334;2023-02-01T17:00:51;44.85;;;25.23;;
28174;SDS011;59417;44.788;10.334;2023-02-01T17:03:33;38.47;;;25.33;;
28174;SDS011;59417;44.788;10.334;2023-02-01T17:05:58;39.58;;;24.33;;
28174;SDS011;59417;44.788;10.334;2023-02-01T17:08:28;36.40;;;25.10;;
28174;SDS011;59417;44.788;10.334;2023-02-01T17:10:57;39.97;;;25.88;;
28174;SDS011;59417;44.788;10.334;2023-02-01T17:13:25;45.65;;;25.77;;
28174;SDS011;59417;44.788;10.334;2023-02-01T17:16:06;43.90;;;25.50;;
28174;SDS011;59417;44.788;10.334;2023-02-01T17:18:40;38.78;;;22.90;;
28174;SDS011;59417;44.788;10.334;2023-02-01T17:21:13;42.10;;;24.35;;
28174;SDS011;59417;44.788;10.334;2023-02-01T17:23:45;41.60;;;25.77;;
28174;SDS011;59417;44.788;10.334;2023-02-01T17:26:14;51.30;;;27.30;;
28174;SDS011;59417;44.788;10.334;2023-02-01T17:28:45;49.70;;;27.48;;
28174;SDS011;59417;44.788;10.334;2023-02-01T17:31:14;50.95;;;29.38;;
28174;SDS011;59417;44.788;10.334;2023-02-01T17:33:43;56.78;;;29.63;;
28174;SDS011;59417;44.788;10.334;2023-02-01T17:36:13;50.50;;;29.52;;
28174;SDS011;59417;44.788;10.334;2023-02-01T17:38:45;46.42;;;28.38;;
28174;SDS011;59417;44.788;10.334;2023-02-01T17:41:17;54.13;;;28.52;;
28174;SDS011;59417;44.788;10.334;2023-02-01T17:43:45;49.13;;;29.23;;
28174;SDS011;59417;44.788;10.334;2023-02-01T17:46:15;54.67;;;29.63;;
28174;SDS011;59417;44.788;10.334;2023-02-01T17:48:51;51.33;;;28.40;;
28174;SDS011;59417;44.788;10.334;2023-02-01T17:51:18;46.53;;;26.42;;
28174;SDS011;59417;44.788;10.334;2023-02-01T17:53:46;45.50;;;28.50;;
28174;SDS011;59417;44.788;10.334;2023-02-01T17:56:17;49.45;;;28.20;;
28174;SDS011;59417;44.788;10.334;2023-02-01T17:58:45;48.50;;;28.15;;